Time;durP1;ratioP1;P1;durP2;ratioP2;P2;SDS_P1;SDS_P2;PMS_P1;PMS_P2;Temp;Humidity;BMP_temperature;BMP_pressure;BME280_temperature;BME280_humidity;BME280_pressure;Samples;Min_cycle;Max_cycle;Signal;HPM_P1;HPM_P2
2021/01/13 00:01:00;;;;;;;;;;;;;;;;;;5059732;28;20379;-78
2021/01/13 00:03:26;;;;;;;;;;;;;;;;;;5048466;28;20391;-80
2021/01/13 00:05:53;;;;;;;;;;;;;;;;;;5045069;28;20379;-79
2021/01/13 00:08:19;;;;;;;;;;;;;;;;;;5042155;28;20414;-79
2021/01/13 00:10:46;;;;;;;;;;;;;;;;;;5045508;28;20410;-80
2021/01/13 00:13:12;;;;;;;;;;;;;;;;;;5049303;28;20380;-79
2021/01/13 00:15:38;;;;;;;;;;;;;;;;;;5047560;28;20382;-79
2021/01/13 00:18:05;;;;;;;;;;;;;;;;;;5048565;28;20399;-79
2021/01/13 00:20:31;;;;;;;;;;;;;;;;;;5059374;28;20375;-79
2021/01/13 00:22:57;;;;;;;;;;;;;;;;;;5052341;28;20380;-78
2021/01/13 00:25:24;;;;;;;;;;;;;;;;;;5070031;28;20375;-78
2021/01/13 00:27:50;;;;;;;;;;;;;;;;;;5068822;28;20395;-79
2021/01/13 00:30:16;;;;;;;;;;;;;;;;;;5074455;28;20408;-79
2021/01/13 00:32:43;;;;;;;;;;;;;;;;;;5075136;28;20406;-77
2021/01/13 00:35:09;;;;;;;;;;;;;;;;;;5073436;28;20380;-78
2021/01/13 00:37:36;;;;;;;;;;;;;;;;;;5071224;28;20431;-79
2021/01/13 00:40:02;;;;;;;;;;;;;;;;;;5056002;28;20415;-80
2021/01/13 00:42:28;;;;;;;;;;;;;;;;;;5055709;28;20388;-79
2021/01/13 00:44:55;;;;;;;;;;;;;;;;;;5054811;28;20895;-79
2021/01/13 00:47:21;;;;;;;;;;;;;;;;;;5055930;28;20388;-79
2021/01/13 00:49:47;;;;;;;;;;;;;;;;;;5055280;28;20399;-80
2021/01/13 00:52:14;;;;;;;;;;;;;;;;;;5055917;28;20454;-79
2021/01/13 00:54:40;;;;;;;;;;;;;;;;;;5053289;28;20384;-80
2021/01/13 00:57:07;;;;;;;;;;;;;;;;;;5055317;28;20410;-77
2021/01/13 00:59:33;;;;;;;;;;;;;;;;;;5040001;28;20399;-79
2021/01/13 01:01:59;;;;;;;;;;;;;;;;;;5046384;28;21187;-79
2021/01/13 01:04:26;;;;;;;;;;;;;;;;;;5051849;28;20384;-79
2021/01/13 01:06:52;;;;;;;;;;;;;;;;;;5052070;28;20382;-79
2021/01/13 01:09:18;;;;;;;;;;;;;;;;;;5052828;28;20410;-78
2021/01/13 01:11:45;;;;;;;;;;;;;;;;;;5055119;28;20404;-79
2021/01/13 01:14:11;;;;;;;;;;;;;;;;;;5047882;28;20390;-79
2021/01/13 01:16:37;;;;;;;;;;;;;;;;;;5054669;28;20388;-79
2021/01/13 01:19:04;;;;;;;;;;;;;;;;;;5062412;28;20404;-80
2021/01/13 01:21:30;;;;;;;;;;;;;;;;;;5062134;28;20376;-79
2021/01/13 01:23:57;;;;;;;;;;;;;;;;;;5054913;28;20392;-78
2021/01/13 01:26:23;;;;;;;;;;;;;;;;;;5054736;28;20388;-79
2021/01/13 01:28:49;;;;;;;;;;;;;;;;;;5054123;28;20412;-79
2021/01/13 01:31:16;;;;;;;;;;;;;;;;;;5050230;28;20406;-78
2021/01/13 01:33:42;;;;;;;;;;;;;;;;;;5057221;28;20422;-79
2021/01/13 01:36:08;;;;;;;;;;;;;;;;;;5058323;28;20441;-79
2021/01/13 01:38:35;;;;;;;;;;;;;;;;;;5052649;28;20431;-78
2021/01/13 01:41:01;;;;;;;;;;;;;;;;;;5040636;28;20387;-79
2021/01/13 01:43:27;;;;;;;;;;;;;;;;;;5057951;28;20388;-79
2021/01/13 01:45:54;;;;;;;;;;;;;;;;;;5055440;28;20380;-79
2021/01/13 01:48:20;;;;;;;;;;;;;;;;;;5058052;28;20414;-78
2021/01/13 01:50:47;;;;;;;;;;;;;;;;;;5056574;28;20415;-78
2021/01/13 01:53:13;;;;;;;;;;;;;;;;;;5058200;28;20385;-79
2021/01/13 01:55:39;;;;;;;;;;;;;;;;;;5050551;28;20398;-78
2021/01/13 01:58:06;;;;;;;;;;;;;;;;;;5058069;28;20412;-78
2021/01/13 02:00:32;;;;;;;;;;;;;;;;;;5057157;28;20385;-79
2021/01/13 02:02:59;;;;;;;;;;;;;;;;;;5058339;28;20446;-79
2021/01/13 02:05:25;;;;;;;;;;;;;;;;;;5056511;28;20411;-78
2021/01/13 02:07:51;;;;;;;;;;;;;;;;;;5057016;28;20914;-78
2021/01/13 02:10:18;;;;;;;;;;;;;;;;;;5053266;28;20396;-79
2021/01/13 02:12:44;;;;;;;;;;;;;;;;;;5050834;28;20383;-78
2021/01/13 02:15:10;;;;;;;;;;;;;;;;;;5053537;28;20388;-78
2021/01/13 02:17:37;;;;;;;;;;;;;;;;;;5058847;28;20408;-78
2021/01/13 02:20:03;;;;;;;;;;;;;;;;;;5045241;28;20410;-79
2021/01/13 02:22:30;;;;;;;;;;;;;;;;;;5052119;28;20418;-79
2021/01/13 02:24:56;;;;;;;;;;;;;;;;;;5041319;28;20393;-79
2021/01/13 02:27:22;;;;;;;;;;;;;;;;;;5057961;28;20729;-79
2021/01/13 02:29:49;;;;;;;;;;;;;;;;;;5058158;28;20436;-80
2021/01/13 02:32:15;;;;;;;;;;;;;;;;;;5047739;28;20448;-79
2021/01/13 02:34:41;;;;;;;;;;;;;;;;;;5057318;28;21015;-79
2021/01/13 02:37:08;;;;;;;;;;;;;;;;;;5054524;28;20401;-82
2021/01/13 02:39:34;;;;;;;;;;;;;;;;;;5049976;28;20401;-79
2021/01/13 02:42:01;;;;;;;;;;;;;;;;;;5056622;28;20445;-79
2021/01/13 02:44:27;;;;;;;;;;;;;;;;;;5052649;28;20377;-78
2021/01/13 02:46:53;;;;;;;;;;;;;;;;;;5052297;28;20387;-79
2021/01/13 02:49:20;;;;;;;;;;;;;;;;;;5051149;28;20807;-79
2021/01/13 02:51:46;;;;;;;;;;;;;;;;;;5054393;28;20403;-79
2021/01/13 02:54:12;;;;;;;;;;;;;;;;;;5048941;28;20390;-79
2021/01/13 02:56:39;;;;;;;;;;;;;;;;;;5056139;28;20380;-79
2021/01/13 02:59:05;;;;;;;;;;;;;;;;;;5058498;28;20412;-79
2021/01/13 03:01:32;;;;;;;;;;;;;;;;;;5056183;28;20471;-78
2021/01/13 03:03:58;;;;;;;;;;;;;;;;;;5056198;28;20850;-78
2021/01/13 03:06:24;;;;;;;;;;;;;;;;;;5056865;28;20380;-80
2021/01/13 03:08:51;;;;;;;;;;;;;;;;;;5056393;28;20933;-80
2021/01/13 03:11:17;;;;;;;;;;;;;;;;;;5055846;28;20411;-80
2021/01/13 03:13:44;;;;;;;;;;;;;;;;;;5053806;28;20391;-79
2021/01/13 03:16:10;;;;;;;;;;;;;;;;;;5041720;28;20798;-79
2021/01/13 03:18:36;;;;;;;;;;;;;;;;;;5041595;28;20438;-80
2021/01/13 03:21:03;;;;;;;;;;;;;;;;;;5056814;28;20399;-80
2021/01/13 03:23:29;;;;;;;;;;;;;;;;;;5056827;28;20384;-79
2021/01/13 03:25:55;;;;;;;;;;;;;;;;;;5054007;28;20384;-80
2021/01/13 03:28:22;;;;;;;;;;;;;;;;;;5054885;28;20404;-79
2021/01/13 03:30:48;;;;;;;;;;;;;;;;;;5043170;28;20418;-79
2021/01/13 03:33:15;;;;;;;;;;;;;;;;;;5055932;28;20486;-79
2021/01/13 03:35:41;;;;;;;;;;;;;;;;;;5042728;28;20401;-80
2021/01/13 03:38:07;;;;;;;;;;;;;;;;;;5055644;28;20883;-79
2021/01/13 03:40:34;;;;;;;;;;;;;;;;;;5052234;28;20392;-79
2021/01/13 03:43:00;;;;;;;;;;;;;;;;;;5061966;28;20384;-80
2021/01/13 03:45:26;;;;;;;;;;;;;;;;;;5049050;28;20395;-79
2021/01/13 03:47:53;;;;;;;;;;;;;;;;;;5056749;28;20453;-79
2021/01/13 03:50:19;;;;;;;;;;;;;;;;;;5055864;28;20418;-79
2021/01/13 03:52:46;;;;;;;;;;;;;;;;;;5055515;28;20384;-80
2021/01/13 03:55:12;;;;;;;;;;;;;;;;;;5051871;28;20384;-80
2021/01/13 03:57:38;;;;;;;;;;;;;;;;;;5058008;28;20404;-81
2021/01/13 04:00:05;;;;;;;;;;;;;;;;;;5060370;28;20391;-81
2021/01/13 04:02:31;;;;;;;;;;;;;;;;;;5054131;28;20806;-80
2021/01/13 04:04:57;;;;;;;;;;;;;;;;;;5049893;28;20390;-80
2021/01/13 04:07:24;;;;;;;;;;;;;;;;;;5051739;28;20395;-80
2021/01/13 04:09:50;;;;;;;;;;;;;;;;;;5052333;28;20372;-81
2021/01/13 04:12:20;;;;;;;;;;;;;;;;;;5055413;28;20815;-80
2021/01/13 04:14:47;;;;;;;;;;;;;;;;;;5056909;28;20383;-80
2021/01/13 04:17:13;;;;;;;;;;;;;;;;;;5060753;28;20383;-80
2021/01/13 04:19:40;;;;;;;;;;;;;;;;;;5051674;28;20445;-80
2021/01/13 04:22:06;;;;;;;;;;;;;;;;;;5055661;28;20386;-79
2021/01/13 04:24:32;;;;;;;;;;;;;;;;;;5041450;28;20391;-80
2021/01/13 04:26:59;;;;;;;;;;;;;;;;;;5046055;28;20403;-79
2021/01/13 04:29:25;;;;;;;;;;;;;;;;;;5056204;28;20404;-80
2021/01/13 04:31:51;;;;;;;;;;;;;;;;;;5056024;28;20788;-79
2021/01/13 04:34:18;;;;;;;;;;;;;;;;;;5064927;28;20391;-79
2021/01/13 04:36:44;;;;;;;;;;;;;;;;;;5059400;28;20383;-79
2021/01/13 04:39:10;;;;;;;;;;;;;;;;;;5055555;28;20891;-80
2021/01/13 04:41:37;;;;;;;;;;;;;;;;;;5055348;28;20383;-79
2021/01/13 04:44:03;;;;;;;;;;;;;;;;;;5055087;28;20426;-79
2021/01/13 04:46:30;;;;;;;;;;;;;;;;;;5047080;28;20724;-79
2021/01/13 04:48:56;;;;;;;;;;;;;;;;;;5055618;28;20408;-79
2021/01/13 04:51:22;;;;;;;;;;;;;;;;;;5054264;28;20414;-80
2021/01/13 04:53:49;;;;;;;;;;;;;;;;;;5049298;28;20411;-79
2021/01/13 04:56:15;;;;;;;;;;;;;;;;;;5055440;28;20391;-79
2021/01/13 04:58:41;;;;;;;;;;;;;;;;;;5053263;28;20474;-79
2021/01/13 05:01:08;;;;;;;;;;;;;;;;;;5057951;28;20380;-79
2021/01/13 05:03:35;;;;;;;;;;;;;;;;;;5055048;28;20384;-79
2021/01/13 05:06:01;;;;;;;;;;;;;;;;;;5059124;28;20387;-80
2021/01/13 05:08:28;;;;;;;;;;;;;;;;;;5044208;28;20414;-79
2021/01/13 05:10:54;;;;;;;;;;;;;;;;;;5049103;28;20771;-80
2021/01/13 05:13:20;;;;;;;;;;;;;;;;;;5050182;28;20380;-79
2021/01/13 05:15:47;;;;;;;;;;;;;;;;;;5059597;28;20383;-79
2021/01/13 05:18:14;;;;;;;;;;;;;;;;;;5059274;28;20411;-79
2021/01/13 05:20:40;;;;;;;;;;;;;;;;;;5067392;28;20379;-80
2021/01/13 05:23:06;;;;;;;;;;;;;;;;;;5076084;28;20391;-80
2021/01/13 05:25:33;;;;;;;;;;;;;;;;;;5077738;28;20386;-79
2021/01/13 05:27:59;;;;;;;;;;;;;;;;;;5075525;28;20438;-79
2021/01/13 05:30:26;;;;;;;;;;;;;;;;;;5075735;28;20891;-79
2021/01/13 05:32:52;;;;;;;;;;;;;;;;;;5061324;28;20406;-79
2021/01/13 05:35:18;;;;;;;;;;;;;;;;;;5059415;28;20437;-79
2021/01/13 05:37:45;;;;;;;;;;;;;;;;;;5054481;28;20406;-79
2021/01/13 05:40:11;;;;;;;;;;;;;;;;;;5043964;28;20394;-79
2021/01/13 05:42:37;;;;;;;;;;;;;;;;;;5054151;28;20384;-79
2021/01/13 05:45:04;;;;;;;;;;;;;;;;;;5070277;28;20380;-80
2021/01/13 05:47:30;;;;;;;;;;;;;;;;;;5057621;28;20368;-79
2021/01/13 05:49:56;;;;;;;;;;;;;;;;;;5075927;28;20395;-80
2021/01/13 05:52:23;;;;;;;;;;;;;;;;;;5071088;28;20415;-80
2021/01/13 05:54:49;;;;;;;;;;;;;;;;;;5051494;28;20401;-80
2021/01/13 05:57:15;;;;;;;;;;;;;;;;;;5048539;28;20398;-80
2021/01/13 05:59:42;;;;;;;;;;;;;;;;;;5066281;28;20393;-80
2021/01/13 06:02:08;;;;;;;;;;;;;;;;;;5070922;28;20406;-80
2021/01/13 06:04:35;;;;;;;;;;;;;;;;;;5062244;28;20397;-80
2021/01/13 06:07:01;;;;;;;;;;;;;;;;;;5064297;28;20407;-80
2021/01/13 06:09:27;;;;;;;;;;;;;;;;;;5064360;28;20904;-81
2021/01/13 06:11:54;;;;;;;;;;;;;;;;;;5069985;28;20404;-80
2021/01/13 06:14:20;;;;;;;;;;;;;;;;;;5065915;28;20387;-81
2021/01/13 06:16:46;;;;;;;;;;;;;;;;;;5065287;28;20462;-80
2021/01/13 06:19:13;;;;;;;;;;;;;;;;;;5061256;28;20407;-80
2021/01/13 06:21:39;;;;;;;;;;;;;;;;;;5074058;28;20367;-80
2021/01/13 06:24:06;;;;;;;;;;;;;;;;;;5058982;28;20422;-80
2021/01/13 06:26:32;;;;;;;;;;;;;;;;;;5050154;28;20391;-80
2021/01/13 06:28:58;;;;;;;;;;;;;;;;;;5043445;28;20494;-80
2021/01/13 06:31:25;;;;;;;;;;;;;;;;;;5041133;28;20399;-80
2021/01/13 06:33:51;;;;;;;;;;;;;;;;;;5054127;28;20391;-80
2021/01/13 06:36:17;;;;;;;;;;;;;;;;;;5055011;28;20387;-80
2021/01/13 06:38:44;;;;;;;;;;;;;;;;;;5046817;28;20410;-80
2021/01/13 06:41:10;;;;;;;;;;;;;;;;;;5042077;28;20391;-80
2021/01/13 06:43:36;;;;;;;;;;;;;;;;;;5061076;28;20412;-80
2021/01/13 06:46:03;;;;;;;;;;;;;;;;;;5060425;28;20384;-80
2021/01/13 06:48:29;;;;;;;;;;;;;;;;;;5060205;28;20404;-80
2021/01/13 06:50:56;;;;;;;;;;;;;;;;;;5056023;28;20408;-83
2021/01/13 06:53:22;;;;;;;;;;;;;;;;;;5063852;28;20820;-83
2021/01/13 06:55:50;;;;;;;;;;;;;;;;;;5059275;28;20384;-81
2021/01/13 06:58:16;;;;;;;;;;;;;;;;;;5042428;28;20846;-81
2021/01/13 07:00:42;;;;;;;;;;;;;;;;;;5045291;28;20375;-80
2021/01/13 07:03:09;;;;;;;;;;;;;;;;;;5060328;28;20399;-78
2021/01/13 07:05:35;;;;;;;;;;;;;;;;;;5060432;28;20388;-79
2021/01/13 07:08:02;;;;;;;;;;;;;;;;;;5060736;28;20897;-79
2021/01/13 07:10:28;;;;;;;;;;;;;;;;;;5061135;28;20441;-81
2021/01/13 07:12:54;;;;;;;;;;;;;;;;;;5060413;28;20387;-80
2021/01/13 07:15:21;;;;;;;;;;;;;;;;;;5047394;28;20409;-80
2021/01/13 07:17:47;;;;;;;;;;;;;;;;;;5054758;28;20479;-80
2021/01/13 07:20:14;;;;;;;;;;;;;;;;;;5057610;28;20377;-80
2021/01/13 07:22:40;;;;;;;;;;;;;;;;;;5041121;28;20398;-79
2021/01/13 07:25:06;;;;;;;;;;;;;;;;;;5057095;28;20737;-80
2021/01/13 07:27:33;;;;;;;;;;;;;;;;;;5048536;28;20407;-79
2021/01/13 07:29:59;;;;;;;;;;;;;;;;;;5045192;28;20781;-82
2021/01/13 07:32:25;;;;;;;;;;;;;;;;;;5041761;28;20470;-80
2021/01/13 07:34:52;;;;;;;;;;;;;;;;;;5048679;28;20395;-81
2021/01/13 07:37:18;;;;;;;;;;;;;;;;;;5060677;28;20392;-81
2021/01/13 07:39:44;;;;;;;;;;;;;;;;;;5053048;28;20388;-82
2021/01/13 07:42:12;;;;;;;;;;;;;;;;;;5058676;28;20388;-82
2021/01/13 07:44:38;;;;;;;;;;;;;;;;;;5043773;28;20379;-81
2021/01/13 07:47:04;;;;;;;;;;;;;;;;;;5052349;28;20388;-82
2021/01/13 07:49:31;;;;;;;;;;;;;;;;;;5068361;28;20407;-80
2021/01/13 07:51:57;;;;;;;;;;;;;;;;;;5062280;28;20405;-82
2021/01/13 07:54:24;;;;;;;;;;;;;;;;;;5040452;28;20391;-82
2021/01/13 07:56:50;;;;;;;;;;;;;;;;;;5039194;28;20880;-82
2021/01/13 07:59:16;;;;;;;;;;;;;;;;;;5045284;28;20408;-82
2021/01/13 08:01:43;;;;;;;;;;;;;;;;;;5053445;28;20368;-82
2021/01/13 08:04:09;;;;;;;;;;;;;;;;;;5047923;28;20379;-82
2021/01/13 08:06:36;;;;;;;;;;;;;;;;;;5048837;28;20395;-81
2021/01/13 08:09:02;;;;;;;;;;;;;;;;;;5054051;28;20410;-81
2021/01/13 08:11:28;;;;;;;;;;;;;;;;;;5058548;28;20400;-82
2021/01/13 08:13:54;;;;;;;;;;;;;;;;;;5051840;28;20380;-84
2021/01/13 08:16:24;;;;;;;;;;;;;;;;;;5058500;28;20406;-84
2021/01/13 08:18:53;;;;;;;;;;;;;;;;;;5060278;28;20446;-85
2021/01/13 08:21:24;;;;;;;;;;;;;;;;;;5064370;28;20431;-85
2021/01/13 08:23:51;;;;;;;;;;;;;;;;;;5058911;28;20373;-84
2021/01/13 08:26:18;;;;;;;;;;;;;;;;;;5053735;28;20400;-83
2021/01/13 08:28:44;;;;;;;;;;;;;;;;;;5064237;28;20403;-83
2021/01/13 08:31:11;;;;;;;;;;;;;;;;;;5052150;28;20406;-84
2021/01/13 08:33:37;;;;;;;;;;;;;;;;;;5051803;28;20384;-83
2021/01/13 08:36:03;;;;;;;;;;;;;;;;;;5060712;28;20373;-83
2021/01/13 08:38:30;;;;;;;;;;;;;;;;;;5062532;28;20400;-84
2021/01/13 08:40:56;;;;;;;;;;;;;;;;;;5064491;28;20391;-84
2021/01/13 08:43:24;;;;;;;;;;;;;;;;;;5064177;28;20445;-84
2021/01/13 08:45:51;;;;;;;;;;;;;;;;;;5059068;28;20875;-85
2021/01/13 08:48:18;;;;;;;;;;;;;;;;;;5063808;28;20426;-85
2021/01/13 08:50:44;;;;;;;;;;;;;;;;;;5063825;28;20446;-84
2021/01/13 08:53:10;;;;;;;;;;;;;;;;;;5064086;28;20386;-84
2021/01/13 09:03:59;;;;;;;;;;;;;;;;;;5002691;28;20382;-85
2021/01/13 09:06:27;;;;;;;;;;;;;;;;;;5003022;28;20479;-85
2021/01/13 09:08:53;;;;;;;;;;;;;;;;;;5003212;28;20832;-82
2021/01/13 09:11:20;;;;;;;;;;;;;;;;;;5002858;28;20415;-84
2021/01/13 09:13:46;;;;;;;;;;;;;;;;;;5002456;28;20403;-84
2021/01/13 09:16:13;;;;;;;;;;;;;;;;;;5003689;28;20431;-83
2021/01/13 09:18:39;;;;;;;;;;;;;;;;;;5002045;28;20430;-83
2021/01/13 09:21:05;;;;;;;;;;;;;;;;;;5001559;28;20396;-84
2021/01/13 09:23:32;;;;;;;;;;;;;;;;;;5002561;28;20403;-84
2021/01/13 09:25:58;;;;;;;;;;;;;;;;;;5007246;28;20412;-83
2021/01/13 09:28:25;;;;;;;;;;;;;;;;;;5009672;28;20446;-83
2021/01/13 09:30:53;;;;;;;;;;;;;;;;;;5002521;28;20411;-82
2021/01/13 09:33:19;;;;;;;;;;;;;;;;;;5001952;28;20431;-82
2021/01/13 09:35:46;;;;;;;;;;;;;;;;;;5000713;28;20404;-84
2021/01/13 09:38:12;;;;;;;;;;;;;;;;;;5001096;28;20412;-84
2021/01/13 09:40:38;;;;;;;;;;;;;;;;;;5000440;28;20392;-84
2021/01/13 09:43:05;;;;;;;;;;;;;;;;;;5001891;28;20402;-85
2021/01/13 09:45:31;;;;;;;;;;;;;;;;;;5039647;28;20755;-85
2021/01/13 09:47:57;;;;;;;;;;;;;;;;;;5057961;28;20427;-85
2021/01/13 09:50:24;;;;;;;;;;;;;;;;;;5062228;28;20384;-85
2021/01/13 09:52:52;;;;;;;;;;;;;;;;;;5062552;28;20872;-84
2021/01/13 09:55:18;;;;;;;;;;;;;;;;;;5050562;28;20802;-84
2021/01/13 09:57:45;;;;;;;;;;;;;;;;;;5056067;28;20414;-86
2021/01/13 10:00:11;;;;;;;;;;;;;;;;;;5044669;28;20386;-84
2021/01/13 10:02:38;;;;;;;;;;;;;;;;;;5051755;28;20376;-85
2021/01/13 10:05:04;;;;;;;;;;;;;;;;;;5062408;28;20391;-84
2021/01/13 10:07:30;;;;;;;;;;;;;;;;;;5051932;28;20437;-85
2021/01/13 10:09:57;;;;;;;;;;;;;;;;;;5061400;28;20391;-84
2021/01/13 10:12:23;;;;;;;;;;;;;;;;;;5074548;28;20411;-83
2021/01/13 10:14:50;;;;;;;;;;;;;;;;;;5070610;28;20383;-81
2021/01/13 10:17:17;;;;;;;;;;;;;;;;;;5060659;28;20450;-80
2021/01/13 10:19:43;;;;;;;;;;;;;;;;;;5066998;28;20384;-81
2021/01/13 10:22:09;;;;;;;;;;;;;;;;;;5064833;28;20395;-82
2021/01/13 10:24:36;;;;;;;;;;;;;;;;;;5065969;28;20471;-81
2021/01/13 10:27:02;;;;;;;;;;;;;;;;;;5057609;28;20916;-83
2021/01/13 10:29:29;;;;;;;;;;;;;;;;;;5047211;28;20404;-82
2021/01/13 10:31:55;;;;;;;;;;;;;;;;;;5052979;28;20403;-82
2021/01/13 10:34:21;;;;;;;;;;;;;;;;;;5055114;28;20387;-82
2021/01/13 10:36:49;;;;;;;;;;;;;;;;;;5052698;28;20393;-84
2021/01/13 10:39:15;;;;;;;;;;;;;;;;;;5061685;28;20410;-83
2021/01/13 10:41:42;;;;;;;;;;;;;;;;;;5063354;28;20387;-82
2021/01/13 10:44:08;;;;;;;;;;;;;;;;;;5067232;28;20386;-82
2021/01/13 10:46:34;;;;;;;;;;;;;;;;;;5061524;28;20376;-82
2021/01/13 10:49:01;;;;;;;;;;;;;;;;;;5057459;28;20400;-83
2021/01/13 10:51:27;;;;;;;;;;;;;;;;;;5064778;28;20944;-81
2021/01/13 10:53:53;;;;;;;;;;;;;;;;;;5072374;28;20365;-83
2021/01/13 10:56:20;;;;;;;;;;;;;;;;;;5064771;28;20410;-82
2021/01/13 10:58:46;;;;;;;;;;;;;;;;;;5058633;28;20461;-81
2021/01/13 11:01:13;;;;;;;;;;;;;;;;;;5055079;28;20437;-79
2021/01/13 11:03:39;;;;;;;;;;;;;;;;;;5053909;28;20380;-84
2021/01/13 11:06:05;;;;;;;;;;;;;;;;;;5058972;28;20788;-83
2021/01/13 11:08:36;;;;;;;;;;;;;;;;;;5050863;28;20411;-83
2021/01/13 11:11:03;;;;;;;;;;;;;;;;;;5055794;28;20511;-85
2021/01/13 11:13:29;;;;;;;;;;;;;;;;;;5054050;28;20395;-83
2021/01/13 11:15:56;;;;;;;;;;;;;;;;;;5059789;28;20406;-84
2021/01/13 11:18:22;;;;;;;;;;;;;;;;;;5060407;28;20411;-84
2021/01/13 11:20:49;;;;;;;;;;;;;;;;;;5059315;28;20394;-84
2021/01/13 11:23:15;;;;;;;;;;;;;;;;;;5047278;28;20394;-83
2021/01/13 11:25:41;;;;;;;;;;;;;;;;;;5045813;28;20390;-83
2021/01/13 11:28:08;;;;;;;;;;;;;;;;;;5053496;28;20399;-83
2021/01/13 11:30:36;;;;;;;;;;;;;;;;;;5059644;28;20394;-83
2021/01/13 11:33:03;;;;;;;;;;;;;;;;;;5060785;28;20760;-82
2021/01/13 11:35:29;;;;;;;;;;;;;;;;;;5061317;28;20377;-81
2021/01/13 11:37:55;;;;;;;;;;;;;;;;;;5062130;28;20446;-83
2021/01/13 11:40:22;;;;;;;;;;;;;;;;;;5049570;28;20426;-82
2021/01/13 11:42:48;;;;;;;;;;;;;;;;;;5061231;28;20380;-82
2021/01/13 11:45:15;;;;;;;;;;;;;;;;;;5048681;28;20391;-80
2021/01/13 11:47:41;;;;;;;;;;;;;;;;;;5041257;28;20467;-83
2021/01/13 11:50:07;;;;;;;;;;;;;;;;;;5055387;28;20494;-82
2021/01/13 11:52:35;;;;;;;;;;;;;;;;;;5061639;28;20504;-82
2021/01/13 11:55:01;;;;;;;;;;;;;;;;;;5047840;28;20398;-82
2021/01/13 11:57:28;;;;;;;;;;;;;;;;;;5050290;28;20395;-81
2021/01/13 11:59:54;;;;;;;;;;;;;;;;;;5045182;28;20396;-82
2021/01/13 12:02:20;;;;;;;;;;;;;;;;;;5052429;28;20840;-81
2021/01/13 12:04:47;;;;;;;;;;;;;;;;;;5053816;28;20402;-84
2021/01/13 12:07:13;;;;;;;;;;;;;;;;;;5053965;28;20383;-83
2021/01/13 12:09:40;;;;;;;;;;;;;;;;;;5057728;28;20391;-84
2021/01/13 12:12:06;;;;;;;;;;;;;;;;;;5059291;28;20399;-84
2021/01/13 12:14:33;;;;;;;;;;;;;;;;;;5060171;28;20413;-82
2021/01/13 12:17:00;;;;;;;;;;;;;;;;;;5039985;28;20432;-80
2021/01/13 12:19:26;;;;;;;;;;;;;;;;;;5040787;28;20411;-84
2021/01/13 12:21:52;;;;;;;;;;;;;;;;;;5055014;28;20384;-84
2021/01/13 12:24:23;;;;;;;;;;;;;;;;;;5043763;28;20421;-83
2021/01/13 12:26:50;;;;;;;;;;;;;;;;;;5060271;28;20391;-83
2021/01/13 12:29:18;;;;;;;;;;;;;;;;;;5060324;28;20431;-82
2021/01/13 12:31:44;;;;;;;;;;;;;;;;;;5060048;28;20426;-82
2021/01/13 12:34:11;;;;;;;;;;;;;;;;;;5048232;28;20415;-83
2021/01/13 12:36:37;;;;;;;;;;;;;;;;;;5049263;28;20414;-83
2021/01/13 12:39:03;;;;;;;;;;;;;;;;;;5061587;28;20408;-83
2021/01/13 12:41:30;;;;;;;;;;;;;;;;;;5064564;28;20383;-83
2021/01/13 12:43:56;;;;;;;;;;;;;;;;;;5060930;28;20391;-83
2021/01/13 12:46:23;;;;;;;;;;;;;;;;;;5053956;28;20905;-84
2021/01/13 12:48:49;;;;;;;;;;;;;;;;;;5041617;28;20406;-83
2021/01/13 12:51:15;;;;;;;;;;;;;;;;;;5039469;28;20879;-84
2021/01/13 12:53:42;;;;;;;;;;;;;;;;;;5039720;28;20401;-84
2021/01/13 12:56:08;;;;;;;;;;;;;;;;;;5046443;28;20391;-83
2021/01/13 12:58:34;;;;;;;;;;;;;;;;;;5052398;28;20403;-82
2021/01/13 13:03:47;;;;;;;;;;;;;;;;;;5049341;28;20382;-84
2021/01/13 13:06:16;;;;;;;;;;;;;;;;;;5054195;28;20404;-83
2021/01/13 13:08:43;;;;;;;;;;;;;;;;;;5044849;28;20441;-82
2021/01/13 13:11:09;;;;;;;;;;;;;;;;;;5052299;28;20394;-82
2021/01/13 13:13:37;;;;;;;;;;;;;;;;;;5057858;28;20518;-81
2021/01/13 13:16:04;;;;;;;;;;;;;;;;;;5056927;28;20852;-82
2021/01/13 13:18:33;;;;;;;;;;;;;;;;;;5050403;28;20398;-82
2021/01/13 13:20:59;;;;;;;;;;;;;;;;;;5037615;28;20869;-83
2021/01/13 13:23:26;;;;;;;;;;;;;;;;;;5058857;28;20383;-84
2021/01/13 13:25:52;;;;;;;;;;;;;;;;;;5044963;28;20391;-83
2021/01/13 13:31:01;;;;;;;;;;;;;;;;;;5060789;28;20486;-82
2021/01/13 13:33:38;;;;;;;;;;;;;;;;;;5062198;28;20368;-82
2021/01/13 13:36:14;;;;;;;;;;;;;;;;;;5060477;28;20798;-82
2021/01/13 13:38:44;;;;;;;;;;;;;;;;;;5059037;28;20786;-83
2021/01/13 13:41:16;;;;;;;;;;;;;;;;;;5008010;28;20541;-82
2021/01/13 13:43:46;;;;;;;;;;;;;;;;;;5038913;28;20391;-82
2021/01/13 13:46:12;;;;;;;;;;;;;;;;;;5040101;28;20394;-83
2021/01/13 13:48:39;;;;;;;;;;;;;;;;;;5053063;28;20399;-82
2021/01/13 13:51:05;;;;;;;;;;;;;;;;;;5060454;28;20767;-83
2021/01/13 13:53:31;;;;;;;;;;;;;;;;;;5059705;28;20387;-82
2021/01/13 13:55:58;;;;;;;;;;;;;;;;;;5044885;28;21516;-83
2021/01/13 13:58:26;;;;;;;;;;;;;;;;;;5052134;28;20404;-83
2021/01/13 14:00:53;;;;;;;;;;;;;;;;;;5059003;28;20403;-81
2021/01/13 14:03:19;;;;;;;;;;;;;;;;;;5050628;28;20386;-82
2021/01/13 14:05:46;;;;;;;;;;;;;;;;;;5056718;28;20438;-83
2021/01/13 14:08:12;;;;;;;;;;;;;;;;;;5054108;28;20407;-82
2021/01/13 14:10:38;;;;;;;;;;;;;;;;;;5041585;28;20870;-82
2021/01/13 14:13:05;;;;;;;;;;;;;;;;;;5056563;28;20406;-80
2021/01/13 14:15:31;;;;;;;;;;;;;;;;;;5059293;28;20388;-81
2021/01/13 14:17:58;;;;;;;;;;;;;;;;;;5069442;28;20407;-81
2021/01/13 14:20:24;;;;;;;;;;;;;;;;;;5058696;28;20372;-83
2021/01/13 14:22:50;;;;;;;;;;;;;;;;;;5057404;28;20376;-81
2021/01/13 14:25:17;;;;;;;;;;;;;;;;;;5047815;28;20464;-82
2021/01/13 14:27:43;;;;;;;;;;;;;;;;;;5045283;28;20408;-83
2021/01/13 14:30:10;;;;;;;;;;;;;;;;;;5057854;28;20418;-82
2021/01/13 14:32:36;;;;;;;;;;;;;;;;;;5050704;28;20390;-84
2021/01/13 14:35:03;;;;;;;;;;;;;;;;;;5045757;28;20412;-83
2021/01/13 14:37:29;;;;;;;;;;;;;;;;;;5059523;28;20380;-84
2021/01/13 14:39:55;;;;;;;;;;;;;;;;;;5052171;28;20470;-83
2021/01/13 14:42:22;;;;;;;;;;;;;;;;;;5060661;28;20388;-85
2021/01/13 14:44:48;;;;;;;;;;;;;;;;;;5045815;28;20391;-84
2021/01/13 14:47:15;;;;;;;;;;;;;;;;;;5062432;28;20395;-84
2021/01/13 14:49:41;;;;;;;;;;;;;;;;;;5064671;28;20368;-83
2021/01/13 14:52:07;;;;;;;;;;;;;;;;;;5073999;28;20396;-84
2021/01/13 14:54:34;;;;;;;;;;;;;;;;;;5070881;28;20707;-84
2021/01/13 14:57:01;;;;;;;;;;;;;;;;;;5071692;28;20367;-86
2021/01/13 14:59:27;;;;;;;;;;;;;;;;;;5073752;28;20403;-82
2021/01/13 15:01:53;;;;;;;;;;;;;;;;;;5062860;28;20368;-84
2021/01/13 15:04:20;;;;;;;;;;;;;;;;;;5053835;28;20379;-83
2021/01/13 15:06:46;;;;;;;;;;;;;;;;;;5060216;28;20388;-84
2021/01/13 15:09:12;;;;;;;;;;;;;;;;;;5060496;28;20425;-84
2021/01/13 15:11:39;;;;;;;;;;;;;;;;;;5066111;28;20419;-84
2021/01/13 15:14:05;;;;;;;;;;;;;;;;;;5055888;28;20391;-85
2021/01/13 15:16:32;;;;;;;;;;;;;;;;;;5049834;28;20842;-84
2021/01/13 15:18:58;;;;;;;;;;;;;;;;;;5064156;28;20409;-84
2021/01/13 15:21:24;;;;;;;;;;;;;;;;;;5074508;28;20403;-83
2021/01/13 15:23:51;;;;;;;;;;;;;;;;;;5069280;28;20406;-84
2021/01/13 15:26:18;;;;;;;;;;;;;;;;;;5054876;28;20893;-82
2021/01/13 15:28:44;;;;;;;;;;;;;;;;;;5073665;28;20423;-84
2021/01/13 15:31:10;;;;;;;;;;;;;;;;;;5075693;28;20396;-84
2021/01/13 15:33:37;;;;;;;;;;;;;;;;;;5065946;28;20386;-83
2021/01/13 15:36:03;;;;;;;;;;;;;;;;;;5064686;28;20394;-82
2021/01/13 15:38:30;;;;;;;;;;;;;;;;;;5059313;28;20429;-84
2021/01/13 15:40:58;;;;;;;;;;;;;;;;;;5060664;28;20406;-83
2021/01/13 15:43:24;;;;;;;;;;;;;;;;;;5058385;28;20384;-84
2021/01/13 15:45:51;;;;;;;;;;;;;;;;;;5047187;28;20376;-83
2021/01/13 15:48:17;;;;;;;;;;;;;;;;;;5059873;28;20414;-85
2021/01/13 15:50:44;;;;;;;;;;;;;;;;;;5057525;28;20387;-84
2021/01/13 15:53:10;;;;;;;;;;;;;;;;;;5056722;28;20414;-84
2021/01/13 15:55:39;;;;;;;;;;;;;;;;;;5065388;28;20387;-84
2021/01/13 15:58:05;;;;;;;;;;;;;;;;;;5053825;28;20419;-85
2021/01/13 16:00:31;;;;;;;;;;;;;;;;;;5040883;28;20398;-83
2021/01/13 16:02:58;;;;;;;;;;;;;;;;;;5054065;28;20898;-85
2021/01/13 16:05:24;;;;;;;;;;;;;;;;;;5055657;28;20383;-84
2021/01/13 16:07:51;;;;;;;;;;;;;;;;;;5049599;28;20421;-84
2021/01/13 16:10:17;;;;;;;;;;;;;;;;;;5039098;28;20397;-84
2021/01/13 16:12:43;;;;;;;;;;;;;;;;;;5049376;28;20410;-83
2021/01/13 16:15:10;;;;;;;;;;;;;;;;;;5055048;28;20790;-84
2021/01/13 16:17:36;;;;;;;;;;;;;;;;;;5059349;28;20418;-83
2021/01/13 16:20:03;;;;;;;;;;;;;;;;;;5059352;28;20392;-84
2021/01/13 16:22:29;;;;;;;;;;;;;;;;;;5059465;28;20375;-85
2021/01/13 16:24:55;;;;;;;;;;;;;;;;;;5059216;28;20392;-84
2021/01/13 16:27:22;;;;;;;;;;;;;;;;;;5057668;28;20394;-84
2021/01/13 16:29:48;;;;;;;;;;;;;;;;;;5061007;28;20745;-85
2021/01/13 16:32:17;;;;;;;;;;;;;;;;;;5049471;28;20406;-84
2021/01/13 16:34:44;;;;;;;;;;;;;;;;;;5042317;28;20391;-84
2021/01/13 16:37:10;;;;;;;;;;;;;;;;;;5040141;28;20378;-83
2021/01/13 16:39:37;;;;;;;;;;;;;;;;;;5054018;28;20407;-84
2021/01/13 16:42:03;;;;;;;;;;;;;;;;;;5046025;28;20846;-85
2021/01/13 16:44:29;;;;;;;;;;;;;;;;;;5050754;28;20379;-86
2021/01/13 16:46:56;;;;;;;;;;;;;;;;;;5059053;28;20393;-83
2021/01/13 16:49:22;;;;;;;;;;;;;;;;;;5052626;28;20407;-83
2021/01/13 16:51:49;;;;;;;;;;;;;;;;;;5056964;28;20403;-86
2021/01/13 16:54:15;;;;;;;;;;;;;;;;;;5052410;28;20395;-84